createdAt,value
2018-12-01T00:02:07.764Z,9.33
2018-12-01T00:04:39.503Z,7.87
2018-12-01T00:07:12.184Z,8.20
2018-12-01T00:09:43.943Z,9.63
2018-12-01T00:12:15.420Z,7.70
2018-12-01T00:14:46.539Z,8.33
2018-12-01T00:17:18.301Z,8.47
2018-12-01T00:19:49.660Z,8.20
2018-12-01T00:22:21.715Z,9.07
2018-12-01T00:24:53.000Z,7.90
2018-12-01T00:27:24.540Z,8.90
2018-12-01T00:29:55.668Z,9.70
2018-12-01T00:32:27.058Z,9.83
2018-12-01T00:34:58.771Z,9.10
2018-12-01T00:37:30.302Z,8.97
2018-12-01T00:40:02.293Z,8.47
2018-12-01T00:42:33.824Z,7.70
2018-12-01T00:45:05.509Z,8.87
2018-12-01T00:47:37.031Z,8.10
2018-12-01T00:50:10.289Z,8.93
2018-12-01T00:52:42.629Z,9.40
2018-12-01T00:55:15.496Z,10.07
2018-12-01T00:57:46.917Z,9.20
2018-12-01T01:00:29.916Z,9.80
2018-12-01T01:03:02.490Z,8.87
2018-12-01T01:05:33.818Z,9.53
2018-12-01T01:08:05.154Z,9.67
2018-12-01T01:10:37.226Z,7.80
2018-12-01T01:13:08.822Z,9.50
2018-12-01T01:15:40.205Z,8.50
2018-12-01T01:18:11.904Z,9.67
2018-12-01T01:20:43.145Z,9.63
2018-12-01T01:23:15.103Z,9.17
2018-12-01T01:25:46.316Z,9.20
2018-12-01T01:28:17.532Z,9.47
2018-12-01T01:30:48.800Z,8.80
2018-12-01T01:33:36.809Z,9.60
2018-12-01T01:36:07.896Z,8.90
2018-12-01T01:38:39.284Z,8.30
2018-12-01T01:41:10.376Z,8.67
2018-12-01T01:43:41.913Z,8.63
2018-12-01T01:46:12.935Z,8.80
2018-12-01T01:48:45.100Z,8.50
2018-12-01T01:51:16.385Z,9.27
2018-12-01T01:53:49.054Z,9.60
2018-12-01T01:56:20.142Z,8.93
2018-12-01T01:58:51.457Z,9.10
2018-12-01T02:01:23.025Z,9.50
2018-12-01T02:03:54.328Z,9.37
2018-12-01T02:06:25.380Z,9.07
2018-12-01T02:08:56.997Z,8.63
2018-12-01T02:11:28.093Z,10.03
2018-12-01T02:13:59.717Z,10.03
2018-12-01T02:16:30.869Z,9.20
2018-12-01T02:19:02.493Z,10.00
2018-12-01T02:21:33.874Z,10.40
2018-12-01T02:24:05.328Z,11.57
2018-12-01T02:26:36.641Z,10.20
2018-12-01T02:29:08.073Z,9.20
2018-12-01T02:31:40.109Z,9.63
2018-12-01T02:34:11.810Z,9.77
2018-12-01T02:36:43.024Z,10.13
2018-12-01T02:39:14.657Z,11.10
2018-12-01T02:41:45.714Z,10.20
2018-12-01T02:44:27.382Z,8.93
2018-12-01T02:47:06.202Z,10.07
2018-12-01T02:49:37.766Z,10.40
2018-12-01T02:52:09.193Z,9.33
2018-12-01T02:54:42.099Z,10.07
2018-12-01T02:57:13.297Z,9.83
2018-12-01T02:59:44.504Z,11.17
2018-12-01T03:02:15.744Z,11.03
2018-12-01T03:04:47.437Z,10.60
2018-12-01T03:07:18.572Z,10.93
2018-12-01T03:09:49.873Z,9.23
2018-12-01T03:12:21.091Z,11.00
2018-12-01T03:14:53.200Z,11.27
2018-12-01T03:17:24.859Z,10.00
2018-12-01T03:19:56.633Z,12.07
2018-12-01T03:22:28.007Z,10.97
2018-12-01T03:24:59.797Z,11.20
2018-12-01T03:27:35.720Z,10.50
2018-12-01T03:30:10.049Z,11.30
2018-12-01T03:32:41.286Z,9.97
2018-12-01T03:35:15.064Z,10.20
2018-12-01T03:37:47.758Z,10.23
2018-12-01T03:40:19.864Z,10.40
2018-12-01T03:42:51.547Z,10.70
2018-12-01T03:45:25.275Z,10.83
2018-12-01T03:47:56.261Z,10.50
2018-12-01T03:50:28.095Z,10.40
2018-12-01T03:52:59.853Z,11.33
2018-12-01T03:55:35.272Z,11.57
2018-12-01T03:58:06.937Z,10.50
2018-12-01T04:00:38.585Z,10.80
2018-12-01T04:03:09.944Z,11.80
2018-12-01T04:05:41.357Z,10.87
2018-12-01T04:08:12.548Z,11.27
2018-12-01T04:10:43.926Z,10.67
2018-12-01T04:13:15.144Z,11.60
2018-12-01T04:15:46.636Z,11.10
2018-12-01T04:18:17.877Z,11.73
2018-12-01T04:20:49.490Z,11.70
2018-12-01T04:23:20.810Z,11.50
2018-12-01T04:25:52.726Z,11.33
2018-12-01T04:28:24.109Z,10.77
2018-12-01T04:30:56.185Z,11.93
2018-12-01T04:33:27.348Z,11.40
2018-12-01T04:35:59.076Z,11.70
2018-12-01T04:38:30.429Z,11.70
2018-12-01T04:41:03.260Z,10.60
2018-12-01T04:43:34.306Z,10.67
2018-12-01T04:46:05.781Z,11.20
2018-12-01T04:48:41.695Z,11.77
2018-12-01T04:51:16.758Z,11.70
2018-12-01T04:53:50.844Z,10.80
2018-12-01T04:56:23.717Z,11.57
2018-12-01T04:58:56.298Z,12.00
2018-12-01T05:01:33.308Z,10.43
2018-12-01T05:04:05.141Z,10.80
2018-12-01T05:06:41.469Z,11.20
2018-12-01T05:09:13.819Z,9.93
2018-12-01T05:11:51.901Z,10.50
2018-12-01T05:14:28.721Z,11.83
2018-12-01T05:17:01.888Z,10.70
2018-12-01T05:19:32.930Z,12.60
2018-12-01T05:22:05.864Z,10.50
2018-12-01T05:24:37.121Z,12.40
2018-12-01T05:27:10.210Z,10.77
2018-12-01T05:29:49.897Z,10.40
2018-12-01T05:32:22.486Z,10.70
2018-12-01T05:34:59.010Z,10.03
2018-12-01T05:37:30.400Z,9.13
2018-12-01T05:40:01.701Z,10.13
2018-12-01T05:42:33.269Z,11.33
2018-12-01T05:45:07.577Z,10.70
2018-12-01T05:47:38.713Z,8.73
2018-12-01T05:50:10.600Z,10.33
2018-12-01T05:52:41.869Z,10.43
2018-12-01T05:55:13.629Z,11.87
2018-12-01T05:57:46.049Z,9.90
2018-12-01T06:00:18.024Z,9.30
2018-12-01T06:02:49.724Z,11.20
2018-12-01T06:05:21.058Z,8.50
2018-12-01T06:07:52.457Z,9.33
2018-12-01T06:10:24.104Z,9.60
2018-12-01T06:12:56.069Z,9.17
2018-12-01T06:15:27.713Z,9.40
2018-12-01T06:17:59.147Z,8.50
2018-12-01T06:20:30.056Z,8.40
2018-12-01T06:23:01.865Z,8.30
2018-12-01T06:25:33.270Z,9.03
2018-12-01T06:28:05.465Z,8.43
2018-12-01T06:30:37.042Z,8.93
2018-12-01T06:33:08.834Z,8.33
2018-12-01T06:35:40.175Z,9.87
2018-12-01T06:38:11.661Z,9.13
2018-12-01T06:40:42.910Z,8.50
2018-12-01T06:43:15.021Z,9.90
2018-12-01T06:45:46.257Z,9.67
2018-12-01T06:48:17.570Z,9.00
2018-12-01T06:50:48.637Z,8.40
2018-12-01T06:53:20.223Z,9.13
2018-12-01T06:55:51.364Z,8.30
2018-12-01T06:58:24.812Z,9.20
2018-12-01T07:00:55.913Z,10.77
2018-12-01T07:03:27.617Z,9.27
2018-12-01T07:05:58.630Z,10.23
2018-12-01T07:08:30.448Z,9.00
2018-12-01T07:11:01.398Z,9.13
2018-12-01T07:13:32.993Z,9.57
2018-12-01T07:16:04.260Z,11.10
2018-12-01T07:18:45.487Z,9.83
2018-12-01T07:21:16.600Z,9.67
2018-12-01T07:23:48.392Z,9.90
2018-12-01T07:26:19.560Z,9.57
2018-12-01T07:28:50.868Z,9.80
2018-12-01T07:31:21.952Z,9.67
2018-12-01T07:33:53.141Z,9.57
2018-12-01T07:36:24.345Z,9.83
2018-12-01T07:38:56.107Z,10.27
2018-12-01T07:41:27.228Z,9.40
2018-12-01T07:43:58.608Z,9.77
2018-12-01T07:46:29.853Z,9.03
2018-12-01T07:49:01.483Z,9.00
2018-12-01T07:51:32.658Z,9.50
2018-12-01T07:54:04.028Z,8.57
2018-12-01T07:56:35.137Z,8.53
2018-12-01T07:59:08.048Z,8.40
2018-12-01T08:01:39.229Z,8.40
2018-12-01T08:04:10.656Z,8.60
2018-12-01T08:06:41.835Z,8.80
2018-12-01T08:09:13.304Z,8.40
2018-12-01T08:11:44.457Z,8.07
2018-12-01T08:14:16.115Z,9.60
2018-12-01T08:16:47.394Z,9.17
2018-12-01T08:19:18.582Z,8.63
2018-12-01T08:21:49.745Z,9.27
2018-12-01T08:24:21.052Z,8.13
2018-12-01T08:26:52.261Z,8.40
2018-12-01T08:29:23.528Z,9.17
2018-12-01T08:31:54.773Z,8.17
2018-12-01T08:34:26.059Z,8.00
2018-12-01T08:36:57.395Z,8.20
2018-12-01T08:39:28.617Z,8.00
2018-12-01T08:41:59.975Z,7.10
2018-12-01T08:44:31.356Z,7.77
2018-12-01T08:47:03.592Z,7.53
2018-12-01T08:49:35.118Z,7.47
2018-12-01T08:52:06.547Z,7.57
2018-12-01T08:54:37.849Z,7.37
2018-12-01T08:57:09.117Z,8.43
2018-12-01T08:59:41.817Z,7.87
2018-12-01T09:02:12.777Z,6.63
2018-12-01T09:04:44.198Z,9.27
2018-12-01T09:07:15.177Z,8.00
2018-12-01T09:09:46.604Z,8.10
2018-12-01T09:12:17.679Z,8.07
2018-12-01T09:14:48.840Z,7.00
2018-12-01T09:17:20.189Z,8.63
2018-12-01T09:19:51.488Z,8.30
2018-12-01T09:22:22.781Z,6.70
2018-12-01T09:24:53.953Z,6.77
2018-12-01T09:27:24.933Z,8.20
2018-12-01T09:29:56.525Z,8.40
2018-12-01T09:32:27.485Z,8.97
2018-12-01T09:34:58.844Z,9.20
2018-12-01T09:37:29.929Z,10.37
2018-12-01T09:40:02.497Z,9.90
2018-12-01T09:42:33.577Z,12.40
2018-12-01T09:45:05.061Z,9.80
2018-12-01T09:47:36.256Z,10.73
2018-12-01T09:50:16.026Z,12.10
2018-12-01T09:52:47.813Z,11.83
2018-12-01T09:55:19.985Z,17.97
2018-12-01T09:57:51.194Z,9.83
2018-12-01T10:00:25.408Z,9.60
2018-12-01T10:02:56.705Z,9.00
2018-12-01T10:05:27.841Z,8.30
2018-12-01T10:07:59.177Z,8.70
2018-12-01T10:10:30.493Z,8.53
2018-12-01T10:13:02.257Z,9.13
2018-12-01T10:15:34.865Z,9.83
2018-12-01T10:18:07.646Z,9.50
2018-12-01T10:20:38.882Z,10.13
2018-12-01T10:23:12.887Z,11.40
2018-12-01T10:25:43.809Z,10.43
2018-12-01T10:28:14.582Z,10.87
2018-12-01T10:30:46.389Z,10.33
2018-12-01T10:33:17.470Z,10.70
2018-12-01T10:35:49.041Z,9.40
2018-12-01T10:38:20.372Z,8.63
2018-12-01T10:40:51.685Z,10.57
2018-12-01T10:43:22.846Z,10.20
2018-12-01T10:45:54.232Z,10.53
2018-12-01T10:48:27.409Z,10.03
2018-12-01T10:50:58.617Z,10.50
2018-12-01T10:53:29.758Z,9.67
2018-12-01T10:56:02.181Z,10.00
2018-12-01T10:58:33.164Z,10.97
2018-12-01T11:01:10.945Z,10.40
2018-12-01T11:03:46.441Z,10.30
2018-12-01T11:06:18.753Z,10.03
2018-12-01T11:08:50.175Z,9.40
2018-12-01T11:11:21.813Z,9.50
2018-12-01T11:13:52.951Z,9.60
2018-12-01T11:16:24.661Z,9.70
2018-12-01T11:18:55.861Z,9.30
2018-12-01T11:21:27.177Z,9.80
2018-12-01T11:23:58.569Z,10.23
2018-12-01T11:26:30.062Z,10.33
2018-12-01T11:29:01.246Z,9.77
2018-12-01T11:31:32.941Z,9.23
2018-12-01T11:34:05.727Z,9.97
2018-12-01T11:36:37.250Z,9.50
2018-12-01T11:39:09.890Z,9.10
2018-12-01T11:41:42.122Z,9.87
2018-12-01T11:44:13.346Z,9.90
2018-12-01T11:46:45.482Z,11.67
2018-12-01T11:49:16.406Z,9.13
2018-12-01T11:51:48.193Z,9.90
2018-12-01T11:54:19.245Z,8.93
2018-12-01T11:56:50.846Z,9.90
2018-12-01T11:59:22.018Z,10.10
2018-12-01T12:01:54.554Z,9.90
2018-12-01T12:04:26.166Z,10.37
2018-12-01T12:06:57.678Z,9.73
2018-12-01T12:09:28.736Z,11.13
2018-12-01T12:12:00.423Z,9.80
2018-12-01T12:14:31.495Z,9.37
2018-12-01T12:17:03.517Z,8.97
2018-12-01T12:19:34.525Z,8.00
2018-12-01T12:22:06.097Z,7.50
2018-12-01T12:24:37.477Z,6.97
2018-12-01T12:27:08.857Z,6.60
2018-12-01T12:29:39.831Z,4.90
2018-12-01T12:32:11.359Z,5.20
2018-12-01T12:34:42.661Z,5.40
2018-12-01T12:37:15.123Z,5.13
2018-12-01T12:39:46.645Z,6.00
2018-12-01T12:42:18.390Z,6.00
2018-12-01T12:44:49.574Z,6.30
2018-12-01T12:47:21.614Z,6.13
2018-12-01T12:49:52.754Z,6.10
2018-12-01T12:52:24.382Z,5.33
2018-12-01T12:54:55.868Z,6.20
2018-12-01T12:57:27.367Z,5.70
2018-12-01T12:59:58.313Z,5.50
2018-12-01T13:02:30.962Z,5.47
2018-12-01T13:05:02.187Z,5.50
2018-12-01T13:07:33.713Z,5.87
2018-12-01T13:10:04.713Z,5.77
2018-12-01T13:12:36.582Z,5.53
2018-12-01T13:15:09.195Z,6.07
2018-12-01T13:17:41.481Z,6.00
2018-12-01T13:20:16.990Z,12.50
2018-12-01T13:22:48.978Z,22.20
2018-12-01T13:25:19.598Z,23.47
2018-12-01T13:28:07.245Z,57.60
2018-12-01T13:30:42.244Z,49.23
2018-12-01T13:33:13.437Z,32.30
2018-12-01T13:35:44.359Z,11.97
2018-12-01T13:38:15.890Z,7.50
2018-12-01T13:40:46.901Z,6.70
2018-12-01T13:43:18.461Z,6.00
2018-12-01T13:45:49.518Z,7.47
2018-12-01T13:48:21.066Z,6.00
2018-12-01T13:50:52.596Z,5.90
2018-12-01T13:53:24.263Z,9.33
2018-12-01T13:55:55.660Z,10.27
2018-12-01T13:58:26.953Z,6.50
2018-12-01T14:00:57.862Z,6.10
2018-12-01T14:03:30.573Z,5.43
2018-12-01T14:06:02.210Z,6.37
2018-12-01T14:08:33.914Z,5.63
2018-12-01T14:11:05.325Z,4.80
2018-12-01T14:13:37.795Z,5.53
2018-12-01T14:16:08.894Z,5.87
2018-12-01T14:18:40.210Z,5.20
2018-12-01T14:21:11.214Z,5.93
2018-12-01T14:23:42.984Z,4.83
2018-12-01T14:26:14.078Z,4.70
2018-12-01T14:28:45.582Z,4.53
2018-12-01T14:31:16.638Z,4.80
2018-12-01T14:33:49.257Z,5.33
2018-12-01T14:36:20.692Z,5.30
2018-12-01T14:38:51.963Z,5.37
2018-12-01T14:41:23.473Z,4.23
2018-12-01T14:43:54.746Z,4.60
2018-12-01T14:46:25.926Z,3.90
2018-12-01T14:48:57.530Z,3.97
2018-12-01T14:51:28.754Z,5.00
2018-12-01T14:54:00.073Z,4.20
2018-12-01T14:56:31.374Z,5.37
2018-12-01T14:59:03.139Z,4.97
2018-12-01T15:01:34.222Z,5.10
2018-12-01T15:04:06.327Z,4.70
2018-12-01T15:06:37.390Z,5.20
2018-12-01T15:09:11.423Z,5.40
2018-12-01T15:11:42.650Z,5.50
2018-12-01T15:14:14.270Z,7.20
2018-12-01T15:16:46.271Z,5.47
2018-12-01T15:19:18.337Z,5.47
2018-12-01T15:21:50.543Z,4.43
2018-12-01T15:24:21.723Z,5.17
2018-12-01T15:26:52.963Z,4.63
2018-12-01T15:29:25.122Z,6.37
2018-12-01T15:31:56.242Z,16.47
2018-12-01T15:34:27.591Z,10.70
2018-12-01T15:36:59.110Z,6.70
2018-12-01T15:39:31.237Z,6.00
2018-12-01T15:42:02.310Z,5.30
2018-12-01T15:44:33.741Z,6.07
2018-12-01T15:47:04.997Z,5.47
2018-12-01T15:49:36.714Z,5.30
2018-12-01T15:52:08.107Z,5.27
2018-12-01T15:54:39.821Z,3.93
2018-12-01T15:57:10.948Z,4.40
2018-12-01T15:59:42.501Z,5.17
2018-12-01T16:02:13.674Z,4.23
2018-12-01T16:04:46.738Z,5.17
2018-12-01T16:07:17.902Z,5.30
2018-12-01T16:09:49.394Z,4.97
2018-12-01T16:12:22.081Z,5.00
2018-12-01T16:14:53.865Z,5.03
2018-12-01T16:17:24.950Z,5.87
2018-12-01T16:19:56.185Z,4.70
2018-12-01T16:22:27.844Z,5.50
2018-12-01T16:24:59.744Z,4.87
2018-12-01T16:27:31.169Z,4.70
2018-12-01T16:30:02.847Z,5.50
2018-12-01T16:32:34.008Z,4.27
2018-12-01T16:35:06.726Z,4.93
2018-12-01T16:37:37.785Z,4.63
2018-12-01T16:40:13.858Z,5.20
2018-12-01T16:42:46.554Z,5.97
2018-12-01T16:45:18.768Z,5.50
2018-12-01T16:47:50.158Z,4.90
2018-12-01T16:50:22.072Z,6.03
2018-12-01T16:52:53.268Z,5.33
2018-12-01T16:55:25.414Z,5.80
2018-12-01T16:57:56.740Z,6.23
2018-12-01T17:00:28.170Z,5.93
2018-12-01T17:03:00.190Z,5.67
2018-12-01T17:05:34.524Z,5.43
2018-12-01T17:08:05.657Z,6.03
2018-12-01T17:10:37.009Z,4.70
2018-12-01T17:13:08.970Z,5.70
2018-12-01T17:15:41.637Z,5.23
2018-12-01T17:18:12.689Z,5.60
2018-12-01T17:20:44.734Z,5.30
2018-12-01T17:23:17.001Z,6.00
2018-12-01T17:25:48.305Z,5.07
2018-12-01T17:28:20.526Z,5.67
2018-12-01T17:30:52.382Z,6.70
2018-12-01T17:33:23.482Z,7.40
2018-12-01T17:35:55.226Z,7.30
2018-12-01T17:38:26.183Z,9.37
2018-12-01T17:41:22.869Z,9.47
2018-12-01T17:43:56.285Z,10.57
2018-12-01T17:46:27.838Z,11.60
2018-12-01T17:48:58.948Z,11.23
2018-12-01T17:51:31.808Z,10.47
2018-12-01T17:54:06.085Z,12.50
2018-12-01T17:56:38.496Z,11.20
2018-12-01T17:59:11.492Z,12.67
2018-12-01T18:01:42.751Z,13.33
2018-12-01T18:04:13.966Z,11.50
2018-12-01T18:06:46.537Z,13.03
2018-12-01T18:09:17.859Z,12.80
2018-12-01T18:11:49.769Z,11.80
2018-12-01T18:14:20.906Z,13.50
2018-12-01T18:16:52.215Z,13.53
2018-12-01T18:19:23.465Z,14.40
2018-12-01T18:21:54.640Z,14.50
2018-12-01T18:24:25.841Z,13.60
2018-12-01T18:26:57.099Z,14.43
2018-12-01T18:29:28.309Z,14.13
2018-12-01T18:31:59.975Z,12.70
2018-12-01T18:34:31.169Z,12.80
2018-12-01T18:37:03.832Z,13.17
2018-12-01T18:39:35.240Z,13.53
2018-12-01T18:42:06.662Z,12.03
2018-12-01T18:44:37.910Z,12.40
2018-12-01T18:47:09.470Z,13.60
2018-12-01T18:49:40.714Z,12.80
2018-12-01T18:52:12.647Z,14.40
2018-12-01T18:54:43.698Z,13.50
2018-12-01T18:57:15.227Z,11.73
2018-12-01T18:59:46.318Z,13.37
2018-12-01T19:02:17.587Z,13.27
2018-12-01T19:04:48.754Z,13.93
2018-12-01T19:07:21.257Z,13.77
2018-12-01T19:09:52.657Z,14.23
2018-12-01T19:12:24.350Z,14.07
2018-12-01T19:14:55.514Z,13.47
2018-12-01T19:17:26.967Z,14.30
2018-12-01T19:19:58.138Z,14.40
2018-12-01T19:22:29.968Z,13.73
2018-12-01T19:25:01.170Z,15.50
2018-12-01T19:27:32.694Z,16.60
2018-12-01T19:30:05.350Z,14.53
2018-12-01T19:32:36.445Z,15.03
2018-12-01T19:35:09.903Z,15.47
2018-12-01T19:37:41.736Z,16.53
2018-12-01T19:40:21.788Z,16.83
2018-12-01T19:42:53.223Z,18.03
2018-12-01T19:45:25.122Z,21.20
2018-12-01T19:47:57.077Z,16.83
2018-12-01T19:50:39.316Z,16.53
2018-12-01T19:53:12.817Z,15.70
2018-12-01T19:55:44.494Z,16.67
2018-12-01T19:58:18.517Z,15.70
2018-12-01T20:00:53.916Z,12.70
2018-12-01T20:03:26.447Z,13.20
2018-12-01T20:05:57.968Z,13.23
2018-12-01T20:08:30.427Z,13.73
2018-12-01T20:11:04.076Z,14.77
2018-12-01T20:13:38.271Z,13.30
2018-12-01T20:16:35.220Z,13.70
2018-12-01T20:19:09.677Z,14.10
2018-12-01T20:21:40.795Z,14.87
2018-12-01T20:24:12.676Z,14.07
2018-12-01T20:26:44.728Z,13.37
2018-12-01T20:29:16.258Z,16.10
2018-12-01T20:31:47.596Z,16.23
2018-12-01T20:34:19.347Z,16.37
2018-12-01T20:36:55.553Z,16.73
2018-12-01T20:39:33.861Z,15.43
2018-12-01T20:42:05.220Z,14.17
2018-12-01T20:44:37.285Z,13.13
2018-12-01T20:47:08.834Z,15.37
2018-12-01T20:49:40.734Z,15.83
2018-12-01T20:52:12.123Z,15.70
2018-12-01T20:54:46.185Z,15.47
2018-12-01T20:57:19.100Z,15.87
2018-12-01T20:59:51.033Z,15.90
2018-12-01T21:02:22.189Z,16.50
2018-12-01T21:04:54.340Z,16.73
2018-12-01T21:07:25.833Z,14.83
2018-12-01T21:09:58.513Z,14.90
2018-12-01T21:12:30.051Z,15.00
2018-12-01T21:15:02.657Z,14.50
2018-12-01T21:17:34.117Z,14.47
2018-12-01T21:20:06.714Z,13.93
2018-12-01T21:22:38.205Z,13.97
2018-12-01T21:25:12.216Z,13.50
2018-12-01T21:27:43.721Z,13.07
2018-12-01T21:30:17.513Z,13.30
2018-12-01T21:32:49.957Z,13.87
2018-12-01T21:35:22.499Z,14.00
2018-12-01T21:37:54.345Z,13.93
2018-12-01T21:40:26.064Z,14.17
2018-12-01T21:42:57.437Z,13.10
2018-12-01T21:45:28.684Z,13.60
2018-12-01T21:48:00.041Z,13.37
2018-12-01T21:50:31.987Z,13.30
2018-12-01T21:53:03.793Z,12.80
2018-12-01T21:55:35.521Z,14.07
2018-12-01T21:58:07.890Z,12.73
2018-12-01T22:00:40.690Z,12.80
2018-12-01T22:03:13.432Z,13.00
2018-12-01T22:05:46.568Z,13.23
2018-12-01T22:08:18.433Z,14.27
2018-12-01T22:10:53.517Z,13.00
2018-12-01T22:13:25.008Z,13.00
2018-12-01T22:15:57.176Z,14.40
2018-12-01T22:18:28.640Z,12.77
2018-12-01T22:21:00.385Z,13.33
2018-12-01T22:23:32.687Z,13.17
2018-12-01T22:26:04.544Z,14.00
2018-12-01T22:28:35.964Z,12.90
2018-12-01T22:31:07.575Z,13.53
2018-12-01T22:33:38.951Z,13.00
2018-12-01T22:36:10.721Z,14.83
2018-12-01T22:38:41.829Z,13.73
2018-12-01T22:41:13.593Z,15.87
2018-12-01T22:43:44.853Z,14.07
2018-12-01T22:46:16.669Z,14.13
2018-12-01T22:48:48.303Z,14.60
2018-12-01T22:51:19.877Z,15.60
2018-12-01T22:53:51.238Z,14.40
2018-12-01T22:56:22.664Z,12.70
2018-12-01T22:58:53.681Z,15.70
2018-12-01T23:01:24.980Z,15.60
2018-12-01T23:03:56.194Z,14.63
2018-12-01T23:06:27.574Z,16.60
2018-12-01T23:08:58.653Z,15.87
2018-12-01T23:11:31.648Z,16.47
2018-12-01T23:14:03.607Z,15.90
2018-12-01T23:16:35.213Z,16.20
2018-12-01T23:19:08.043Z,13.47
2018-12-01T23:21:39.967Z,16.10
2018-12-01T23:24:11.237Z,14.40
2018-12-01T23:26:42.713Z,15.47
2018-12-01T23:29:14.321Z,14.87
2018-12-01T23:31:46.459Z,14.23
2018-12-01T23:34:17.506Z,14.07
2018-12-01T23:36:49.241Z,14.00
2018-12-01T23:39:20.247Z,14.43
2018-12-01T23:41:51.738Z,14.60
2018-12-01T23:44:29.468Z,14.33
2018-12-01T23:47:02.930Z,15.20
2018-12-01T23:49:34.089Z,13.93
2018-12-01T23:52:05.300Z,13.70
2018-12-01T23:54:36.642Z,14.63
2018-12-01T23:57:08.022Z,14.87
2018-12-01T23:59:39.273Z,14.60
